sensor_id;sensor_type;location;lat;lon;timestamp;pressure;altitude;pressure_sealevel;temperature;humidity
30302;BME280;17111;52.130;5.028;2023-05-03T00:01:35;103102.59;;;18.80;45.72
30302;BME280;17111;52.130;5.028;2023-05-03T00:04:02;103107.25;;;18.78;45.91
30302;BME280;17111;52.130;5.028;2023-05-03T00:06:29;103099.19;;;18.78;46.67
30302;BME280;17111;52.130;5.028;2023-05-03T00:08:56;103105.50;;;18.77;45.91
30302;BME280;17111;52.130;5.028;2023-05-03T00:11:23;103101.09;;;18.76;46.16
30302;BME280;17111;52.130;5.028;2023-05-03T00:13:49;103102.06;;;18.74;46.07
30302;BME280;17111;52.130;5.028;2023-05-03T00:16:17;103107.44;;;18.74;46.13
30302;BME280;17111;52.130;5.028;2023-05-03T00:18:44;103097.66;;;18.73;45.96
30302;BME280;17111;52.130;5.028;2023-05-03T00:21:13;103102.16;;;18.73;46.40
30302;BME280;17111;52.130;5.028;2023-05-03T00:23:39;103101.28;;;18.72;46.35
30302;BME280;17111;52.130;5.028;2023-05-03T00:26:06;103098.72;;;18.71;46.54
30302;BME280;17111;52.130;5.028;2023-05-03T00:28:32;103090.75;;;18.69;46.11
30302;BME280;17111;52.130;5.028;2023-05-03T00:31:06;103088.13;;;18.68;46.26
30302;BME280;17111;52.130;5.028;2023-05-03T00:33:33;103098.88;;;18.68;45.98
30302;BME280;17111;52.130;5.028;2023-05-03T00:36:11;103100.81;;;18.66;45.88
30302;BME280;17111;52.130;5.028;2023-05-03T00:38:38;103105.34;;;18.65;45.90
30302;BME280;17111;52.130;5.028;2023-05-03T00:41:09;103100.06;;;18.64;45.84
30302;BME280;17111;52.130;5.028;2023-05-03T00:43:36;103101.88;;;18.63;46.22
30302;BME280;17111;52.130;5.028;2023-05-03T00:46:04;103098.41;;;18.61;46.15
30302;BME280;17111;52.130;5.028;2023-05-03T00:48:44;103095.72;;;18.61;46.06
30302;BME280;17111;52.130;5.028;2023-05-03T00:51:13;103105.63;;;18.61;45.53
30302;BME280;17111;52.130;5.028;2023-05-03T00:53:41;103106.59;;;18.60;46.35
30302;BME280;17111;52.130;5.028;2023-05-03T00:56:08;103093.28;;;18.58;45.98
30302;BME280;17111;52.130;5.028;2023-05-03T00:58:35;103095.97;;;18.58;46.02
30302;BME280;17111;52.130;5.028;2023-05-03T01:01:05;103099.72;;;18.56;46.39
30302;BME280;17111;52.130;5.028;2023-05-03T01:03:38;103101.53;;;18.55;45.75
30302;BME280;17111;52.130;5.028;2023-05-03T01:06:16;103098.97;;;18.54;46.31
30302;BME280;17111;52.130;5.028;2023-05-03T01:08:58;103099.03;;;18.52;46.15
30302;BME280;17111;52.130;5.028;2023-05-03T01:16:53;103094.75;;;18.49;46.49
30302;BME280;17111;52.130;5.028;2023-05-03T01:19:30;103096.56;;;18.49;46.39
30302;BME280;17111;52.130;5.028;2023-05-03T01:22:09;103092.16;;;18.48;46.06
30302;BME280;17111;52.130;5.028;2023-05-03T01:24:40;103093.97;;;18.47;45.92
30302;BME280;17111;52.130;5.028;2023-05-03T01:27:07;103091.50;;;18.44;46.00
30302;BME280;17111;52.130;5.028;2023-05-03T01:29:34;103094.28;;;18.43;46.20
30302;BME280;17111;52.130;5.028;2023-05-03T01:32:03;103105.03;;;18.43;46.15
30302;BME280;17111;52.130;5.028;2023-05-03T01:37:07;103096.31;;;18.39;45.91
30302;BME280;17111;52.130;5.028;2023-05-03T01:39:49;103103.50;;;18.39;46.45
30302;BME280;17111;52.130;5.028;2023-05-03T01:42:17;103091.91;;;18.38;46.29
30302;BME280;17111;52.130;5.028;2023-05-03T01:44:47;103086.63;;;18.37;46.62
30302;BME280;17111;52.130;5.028;2023-05-03T01:47:14;103093.81;;;18.36;46.35
30302;BME280;17111;52.130;5.028;2023-05-03T01:49:41;103090.28;;;18.36;46.09
30302;BME280;17111;52.130;5.028;2023-05-03T01:52:08;103093.94;;;18.35;46.57
30302;BME280;17111;52.130;5.028;2023-05-03T01:54:34;103093.06;;;18.34;46.55
30302;BME280;17111;52.130;5.028;2023-05-03T01:57:01;103090.47;;;18.33;46.52
30302;BME280;17111;52.130;5.028;2023-05-03T01:59:28;103080.72;;;18.32;46.13
30302;BME280;17111;52.130;5.028;2023-05-03T02:01:54;103080.81;;;18.30;46.43
30302;BME280;17111;52.130;5.028;2023-05-03T02:04:21;103079.09;;;18.29;46.21
30302;BME280;17111;52.130;5.028;2023-05-03T02:06:48;103075.53;;;18.29;46.20
30302;BME280;17111;52.130;5.028;2023-05-03T02:09:14;103070.28;;;18.27;46.64
30302;BME280;17111;52.130;5.028;2023-05-03T02:11:41;103068.56;;;18.26;46.07
30302;BME280;17111;52.130;5.028;2023-05-03T02:14:09;103059.66;;;18.25;46.41
30302;BME280;17111;52.130;5.028;2023-05-03T02:16:35;103066.94;;;18.23;46.59
30302;BME280;17111;52.130;5.028;2023-05-03T02:19:02;103051.78;;;18.22;46.33
30302;BME280;17111;52.130;5.028;2023-05-03T02:21:29;103044.72;;;18.21;46.48
30302;BME280;17111;52.130;5.028;2023-05-03T02:23:56;103041.13;;;18.21;46.34
30302;BME280;17111;52.130;5.028;2023-05-03T02:26:23;103034.16;;;18.18;46.12
30302;BME280;17111;52.130;5.028;2023-05-03T02:28:49;103029.78;;;18.17;46.33
30302;BME280;17111;52.130;5.028;2023-05-03T02:31:16;103030.72;;;18.16;46.11
30302;BME280;17111;52.130;5.028;2023-05-03T02:33:43;103026.31;;;18.15;46.68
30302;BME280;17111;52.130;5.028;2023-05-03T02:36:09;103026.41;;;18.14;46.43
30302;BME280;17111;52.130;5.028;2023-05-03T02:38:36;103031.00;;;18.12;46.07
30302;BME280;17111;52.130;5.028;2023-05-03T02:41:03;103045.41;;;18.11;46.49
30302;BME280;17111;52.130;5.028;2023-05-03T02:43:29;103051.75;;;18.10;46.61
30302;BME280;17111;52.130;5.028;2023-05-03T02:45:56;103055.34;;;18.09;46.56
30302;BME280;17111;52.130;5.028;2023-05-03T02:48:23;103063.53;;;18.07;46.54
30302;BME280;17111;52.130;5.028;2023-05-03T02:50:49;103065.47;;;18.05;46.46
30302;BME280;17111;52.130;5.028;2023-05-03T02:53:16;103063.63;;;18.06;46.69
30302;BME280;17111;52.130;5.028;2023-05-03T02:55:42;103065.53;;;18.04;46.47
30302;BME280;17111;52.130;5.028;2023-05-03T02:58:09;103075.41;;;18.03;46.88
30302;BME280;17111;52.130;5.028;2023-05-03T03:00:36;103072.84;;;18.02;46.52
30302;BME280;17111;52.130;5.028;2023-05-03T03:03:02;103071.03;;;18.02;46.16
30302;BME280;17111;52.130;5.028;2023-05-03T03:05:29;103072.94;;;18.00;46.48
30302;BME280;17111;52.130;5.028;2023-05-03T03:07:56;103069.38;;;17.99;46.46
30302;BME280;17111;52.130;5.028;2023-05-03T03:10:22;103065.00;;;17.98;46.37
30302;BME280;17111;52.130;5.028;2023-05-03T03:12:49;103069.50;;;17.98;46.44
30302;BME280;17111;52.130;5.028;2023-05-03T03:15:16;103067.78;;;17.97;46.39
30302;BME280;17111;52.130;5.028;2023-05-03T03:17:42;103061.53;;;17.96;46.35
30302;BME280;17111;52.130;5.028;2023-05-03T03:20:09;103066.16;;;17.94;46.79
30302;BME280;17111;52.130;5.028;2023-05-03T03:22:38;103066.16;;;17.94;46.24
30302;BME280;17111;52.130;5.028;2023-05-03T03:25:06;103059.91;;;17.94;46.64
30302;BME280;17111;52.130;5.028;2023-05-03T03:27:33;103064.44;;;17.93;46.50
30302;BME280;17111;52.130;5.028;2023-05-03T03:29:59;103073.41;;;17.92;46.54
30302;BME280;17111;52.130;5.028;2023-05-03T03:32:27;103075.16;;;17.93;46.38
30302;BME280;17111;52.130;5.028;2023-05-03T03:34:53;103073.53;;;17.91;46.62
30302;BME280;17111;52.130;5.028;2023-05-03T03:37:20;103077.91;;;17.92;46.78
30302;BME280;17111;52.130;5.028;2023-05-03T03:39:48;103073.53;;;17.91;46.75
30302;BME280;17111;52.130;5.028;2023-05-03T03:42:15;103076.22;;;17.91;46.58
30302;BME280;17111;52.130;5.028;2023-05-03T03:44:43;103080.72;;;17.90;46.45
30302;BME280;17111;52.130;5.028;2023-05-03T03:47:10;103064.69;;;17.89;46.62
30302;BME280;17111;52.130;5.028;2023-05-03T03:49:36;103075.84;;;17.97;46.60
30302;BME280;17111;52.130;5.028;2023-05-03T03:52:03;103073.59;;;18.04;46.45
30302;BME280;17111;52.130;5.028;2023-05-03T03:54:30;103075.78;;;18.11;46.49
30302;BME280;17111;52.130;5.028;2023-05-03T03:56:56;103077.00;;;18.20;46.66
30302;BME280;17111;52.130;5.028;2023-05-03T03:59:23;103081.88;;;18.28;46.37
30302;BME280;17111;52.130;5.028;2023-05-03T04:01:50;103071.47;;;18.36;46.12
30302;BME280;17111;52.130;5.028;2023-05-03T04:04:17;103078.19;;;18.43;45.74
30302;BME280;17111;52.130;5.028;2023-05-03T04:06:43;103079.59;;;18.48;45.70
30302;BME280;17111;52.130;5.028;2023-05-03T04:09:10;103083.69;;;18.54;45.59
30302;BME280;17111;52.130;5.028;2023-05-03T04:11:36;103081.56;;;18.59;45.13
30302;BME280;17111;52.130;5.028;2023-05-03T04:14:03;103086.81;;;18.61;44.97
30302;BME280;17111;52.130;5.028;2023-05-03T04:16:30;103090.94;;;18.66;44.69
30302;BME280;17111;52.130;5.028;2023-05-03T04:18:56;103094.47;;;18.67;44.99
30302;BME280;17111;52.130;5.028;2023-05-03T04:21:23;103097.88;;;18.70;45.69
30302;BME280;17111;52.130;5.028;2023-05-03T04:23:50;103111.19;;;18.72;44.86
30302;BME280;17111;52.130;5.028;2023-05-03T04:26:16;103111.19;;;18.72;45.11
30302;BME280;17111;52.130;5.028;2023-05-03T04:28:57;103113.78;;;18.73;45.05
30302;BME280;17111;52.130;5.028;2023-05-03T04:31:24;103120.88;;;18.74;44.84
30302;BME280;17111;52.130;5.028;2023-05-03T04:33:51;103124.41;;;18.75;44.69
30302;BME280;17111;52.130;5.028;2023-05-03T04:36:17;103127.97;;;18.76;44.80
30302;BME280;17111;52.130;5.028;2023-05-03T04:38:44;103117.09;;;18.77;44.92
30302;BME280;17111;52.130;5.028;2023-05-03T04:41:11;103120.66;;;18.78;44.50
30302;BME280;17111;52.130;5.028;2023-05-03T04:43:41;103120.66;;;18.78;44.32
30302;BME280;17111;52.130;5.028;2023-05-03T04:46:08;103123.44;;;18.76;44.58
30302;BME280;17111;52.130;5.028;2023-05-03T04:48:35;103118.19;;;18.74;44.72
30302;BME280;17111;52.130;5.028;2023-05-03T04:51:01;103121.06;;;18.71;44.20
30302;BME280;17111;52.130;5.028;2023-05-03T04:53:28;103114.16;;;18.67;44.63
30302;BME280;17111;52.130;5.028;2023-05-03T04:55:55;103115.19;;;18.65;44.76
30302;BME280;17111;52.130;5.028;2023-05-03T04:58:21;103110.13;;;18.60;44.52
30302;BME280;17111;52.130;5.028;2023-05-03T05:00:48;103114.84;;;18.57;44.73
30302;BME280;17111;52.130;5.028;2023-05-03T05:03:15;103113.25;;;18.54;45.05
30302;BME280;17111;52.130;5.028;2023-05-03T05:05:42;103119.78;;;18.50;44.93
30302;BME280;17111;52.130;5.028;2023-05-03T05:08:08;103119.78;;;18.50;45.04
30302;BME280;17111;52.130;5.028;2023-05-03T05:10:41;103121.69;;;18.48;45.14
30302;BME280;17111;52.130;5.028;2023-05-03T05:13:08;103119.88;;;18.48;45.31
30302;BME280;17111;52.130;5.028;2023-05-03T05:15:34;103129.75;;;18.48;45.07
30302;BME280;17111;52.130;5.028;2023-05-03T05:18:01;103130.59;;;18.48;45.18
30302;BME280;17111;52.130;5.028;2023-05-03T05:20:27;103134.16;;;18.49;45.65
30302;BME280;17111;52.130;5.028;2023-05-03T05:22:54;103129.66;;;18.49;45.34
30302;BME280;17111;52.130;5.028;2023-05-03T05:25:21;103133.09;;;18.52;45.26
30302;BME280;17111;52.130;5.028;2023-05-03T05:27:47;103124.00;;;18.54;45.52
30302;BME280;17111;52.130;5.028;2023-05-03T05:30:14;103123.75;;;18.57;45.46
30302;BME280;17111;52.130;5.028;2023-05-03T05:32:40;103120.03;;;18.60;45.42
30302;BME280;17111;52.130;5.028;2023-05-03T05:35:08;103118.00;;;18.63;45.18
30302;BME280;17111;52.130;5.028;2023-05-03T05:37:34;103129.41;;;18.67;45.23
30302;BME280;17111;52.130;5.028;2023-05-03T05:40:01;103132.84;;;18.69;44.83
30302;BME280;17111;52.130;5.028;2023-05-03T05:42:28;103131.81;;;18.71;45.09
30302;BME280;17111;52.130;5.028;2023-05-03T05:44:55;103129.00;;;18.73;44.96
30302;BME280;17111;52.130;5.028;2023-05-03T05:47:22;103126.25;;;18.74;44.83
30302;BME280;17111;52.130;5.028;2023-05-03T05:49:49;103140.41;;;18.77;44.89
30302;BME280;17111;52.130;5.028;2023-05-03T05:52:15;103140.41;;;18.77;44.53
30302;BME280;17111;52.130;5.028;2023-05-03T05:54:42;103137.66;;;18.78;44.64
30302;BME280;17111;52.130;5.028;2023-05-03T05:57:09;103139.38;;;18.79;44.92
30302;BME280;17111;52.130;5.028;2023-05-03T05:59:36;103144.63;;;18.81;44.17
30302;BME280;17111;52.130;5.028;2023-05-03T06:02:02;103141.06;;;18.80;44.62
30302;BME280;17111;52.130;5.028;2023-05-03T06:04:29;103148.09;;;18.83;45.11
30302;BME280;17111;52.130;5.028;2023-05-03T06:06:56;103146.38;;;18.82;44.56
30302;BME280;17111;52.130;5.028;2023-05-03T06:09:22;103150.78;;;18.83;44.71
30302;BME280;17111;52.130;5.028;2023-05-03T06:11:50;103144.41;;;18.84;44.67
30302;BME280;17111;52.130;5.028;2023-05-03T06:14:17;103148.81;;;18.85;44.65
30302;BME280;17111;52.130;5.028;2023-05-03T06:16:45;103148.75;;;18.86;44.26
30302;BME280;17111;52.130;5.028;2023-05-03T06:19:12;103142.41;;;18.87;44.63
30302;BME280;17111;52.130;5.028;2023-05-03T06:21:39;103146.72;;;18.90;44.55
30302;BME280;17111;52.130;5.028;2023-05-03T06:24:06;103142.09;;;18.92;44.45
30302;BME280;17111;52.130;5.028;2023-05-03T06:26:32;103141.97;;;18.93;44.55
30302;BME280;17111;52.130;5.028;2023-05-03T06:28:59;103140.06;;;18.95;44.57
30302;BME280;17111;52.130;5.028;2023-05-03T06:31:26;103143.50;;;18.97;44.32
30302;BME280;17111;52.130;5.028;2023-05-03T06:33:53;103138.88;;;18.99;43.91
30302;BME280;17111;52.130;5.028;2023-05-03T06:36:19;103138.88;;;18.99;43.99
30302;BME280;17111;52.130;5.028;2023-05-03T06:38:46;103139.66;;;19.02;43.84
30302;BME280;17111;52.130;5.028;2023-05-03T06:41:12;103136.97;;;19.02;43.75
30302;BME280;17111;52.130;5.028;2023-05-03T06:43:39;103140.50;;;19.02;43.71
30302;BME280;17111;52.130;5.028;2023-05-03T06:46:06;103132.44;;;19.02;43.59
30302;BME280;17111;52.130;5.028;2023-05-03T06:48:32;103134.28;;;19.02;43.93
30302;BME280;17111;52.130;5.028;2023-05-03T06:50:59;103130.63;;;19.03;43.50
30302;BME280;17111;52.130;5.028;2023-05-03T06:53:25;103132.44;;;19.02;43.94
30302;BME280;17111;52.130;5.028;2023-05-03T06:55:52;103123.53;;;19.02;43.62
30302;BME280;17111;52.130;5.028;2023-05-03T06:58:19;103119.09;;;19.01;43.54
30302;BME280;17111;52.130;5.028;2023-05-03T07:00:45;103125.44;;;18.99;43.12
30302;BME280;17111;52.130;5.028;2023-05-03T07:03:12;103122.88;;;18.98;43.60
30302;BME280;17111;52.130;5.028;2023-05-03T07:05:39;103112.19;;;18.96;43.40
30302;BME280;17111;52.130;5.028;2023-05-03T07:08:05;103108.78;;;18.94;43.34
30302;BME280;17111;52.130;5.028;2023-05-03T07:10:32;103111.53;;;18.93;43.12
30302;BME280;17111;52.130;5.028;2023-05-03T07:12:59;103111.66;;;18.91;43.26
30302;BME280;17111;52.130;5.028;2023-05-03T07:15:26;103107.34;;;18.89;43.53
30302;BME280;17111;52.130;5.028;2023-05-03T07:17:53;103105.63;;;18.88;43.01
30302;BME280;17111;52.130;5.028;2023-05-03T07:20:20;103103.91;;;18.87;43.42
30302;BME280;17111;52.130;5.028;2023-05-03T07:22:46;103096.84;;;18.86;43.68
30302;BME280;17111;52.130;5.028;2023-05-03T07:25:13;103100.47;;;18.85;43.47
30302;BME280;17111;52.130;5.028;2023-05-03T07:27:43;103095.19;;;18.83;43.62
30302;BME280;17111;52.130;5.028;2023-05-03T07:30:10;103093.50;;;18.82;43.55
30302;BME280;17111;52.130;5.028;2023-05-03T07:32:36;103096.19;;;18.82;43.49
30302;BME280;17111;52.130;5.028;2023-05-03T07:35:04;103089.94;;;18.82;43.52
30302;BME280;17111;52.130;5.028;2023-05-03T07:37:30;103090.88;;;18.81;43.66
30302;BME280;17111;52.130;5.028;2023-05-03T07:39:57;103081.00;;;18.81;43.08
30302;BME280;17111;52.130;5.028;2023-05-03T07:42:23;103070.25;;;18.81;43.39
30302;BME280;17111;52.130;5.028;2023-05-03T07:44:51;103074.69;;;18.82;43.59
30302;BME280;17111;52.130;5.028;2023-05-03T07:47:17;103075.75;;;18.80;43.33
30302;BME280;17111;52.130;5.028;2023-05-03T07:49:44;103080.13;;;18.81;43.52
30302;BME280;17111;52.130;5.028;2023-05-03T07:52:13;103074.75;;;18.81;43.54
30302;BME280;17111;52.130;5.028;2023-05-03T07:54:39;103067.69;;;18.80;43.51
30302;BME280;17111;52.130;5.028;2023-05-03T07:57:08;103069.38;;;18.81;42.92
30302;BME280;17111;52.130;5.028;2023-05-03T07:59:34;103072.06;;;18.81;43.38
30302;BME280;17111;52.130;5.028;2023-05-03T08:02:01;103072.06;;;18.81;43.19
30302;BME280;17111;52.130;5.028;2023-05-03T08:04:28;103063.16;;;18.80;43.33
30302;BME280;17111;52.130;5.028;2023-05-03T08:06:55;103056.94;;;18.80;42.97
30302;BME280;17111;52.130;5.028;2023-05-03T08:09:22;103065.00;;;18.80;43.48
30302;BME280;17111;52.130;5.028;2023-05-03T08:11:49;103057.91;;;18.79;43.33
30302;BME280;17111;52.130;5.028;2023-05-03T08:14:16;103056.19;;;18.78;43.19
30302;BME280;17111;52.130;5.028;2023-05-03T08:16:42;103051.69;;;18.78;43.46
30302;BME280;17111;52.130;5.028;2023-05-03T08:19:09;103054.44;;;18.77;43.05
30302;BME280;17111;52.130;5.028;2023-05-03T08:21:35;103052.63;;;18.77;43.16
30302;BME280;17111;52.130;5.028;2023-05-03T08:24:02;103056.19;;;18.78;42.88
30302;BME280;17111;52.130;5.028;2023-05-03T08:26:32;103056.19;;;18.78;42.93
30302;BME280;17111;52.130;5.028;2023-05-03T08:28:58;103051.69;;;18.78;42.80
30302;BME280;17111;52.130;5.028;2023-05-03T08:31:26;103055.22;;;18.79;42.92
30302;BME280;17111;52.130;5.028;2023-05-03T08:33:53;103063.28;;;18.79;42.54
30302;BME280;17111;52.130;5.028;2023-05-03T08:36:19;103057.91;;;18.79;42.79
30302;BME280;17111;52.130;5.028;2023-05-03T08:38:46;103061.44;;;18.79;43.30
30302;BME280;17111;52.130;5.028;2023-05-03T08:41:20;103064.13;;;18.79;43.28
30302;BME280;17111;52.130;5.028;2023-05-03T08:43:52;103063.16;;;18.80;43.03
30302;BME280;17111;52.130;5.028;2023-05-03T08:46:20;103068.44;;;18.82;42.85
30302;BME280;17111;52.130;5.028;2023-05-03T08:48:48;103068.34;;;18.83;42.92
30302;BME280;17111;52.130;5.028;2023-05-03T08:51:18;103074.56;;;18.84;43.14
30302;BME280;17111;52.130;5.028;2023-05-03T08:53:46;103074.44;;;18.85;43.02
30302;BME280;17111;52.130;5.028;2023-05-03T08:56:28;103073.38;;;18.88;43.10
30302;BME280;17111;52.130;5.028;2023-05-03T08:58:55;103069.72;;;18.89;43.33
30302;BME280;17111;52.130;5.028;2023-05-03T09:01:22;103073.19;;;18.91;42.63
30302;BME280;17111;52.130;5.028;2023-05-03T09:03:50;103081.03;;;18.94;42.83
30302;BME280;17111;52.130;5.028;2023-05-03T09:06:23;103084.47;;;18.96;43.02
30302;BME280;17111;52.130;5.028;2023-05-03T09:08:52;103078.91;;;18.99;43.20
30302;BME280;17111;52.130;5.028;2023-05-03T09:11:23;103078.78;;;19.01;42.94
30302;BME280;17111;52.130;5.028;2023-05-03T09:13:50;103078.56;;;19.04;43.19
30302;BME280;17111;52.130;5.028;2023-05-03T09:16:25;103078.38;;;19.07;43.38
30302;BME280;17111;52.130;5.028;2023-05-03T09:19:00;103072.78;;;19.10;43.50
30302;BME280;17111;52.130;5.028;2023-05-03T09:21:27;103064.41;;;19.14;43.00
30302;BME280;17111;52.130;5.028;2023-05-03T09:23:54;103065.13;;;19.16;43.43
30302;BME280;17111;52.130;5.028;2023-05-03T09:26:32;103073.00;;;19.19;42.92
30302;BME280;17111;52.130;5.028;2023-05-03T09:29:03;103081.59;;;19.24;43.62
30302;BME280;17111;52.130;5.028;2023-05-03T09:31:31;103079.47;;;19.30;43.34
30302;BME280;17111;52.130;5.028;2023-05-03T09:33:59;103067.53;;;19.34;43.74
30302;BME280;17111;52.130;5.028;2023-05-03T09:36:26;103075.16;;;19.40;43.91
30302;BME280;17111;52.130;5.028;2023-05-03T09:38:53;103075.78;;;19.43;44.00
30302;BME280;17111;52.130;5.028;2023-05-03T09:41:28;103064.69;;;19.48;43.86
30302;BME280;17111;52.130;5.028;2023-05-03T09:43:55;103068.78;;;19.54;43.69
30302;BME280;17111;52.130;5.028;2023-05-03T09:46:22;103071.91;;;19.60;44.15
30302;BME280;17111;52.130;5.028;2023-05-03T09:48:51;103068.06;;;19.64;45.06
30302;BME280;17111;52.130;5.028;2023-05-03T09:51:23;103059.66;;;19.69;44.99
30302;BME280;17111;52.130;5.028;2023-05-03T09:53:50;103056.63;;;19.73;45.02
30302;BME280;17111;52.130;5.028;2023-05-03T09:56:17;103059.00;;;19.78;44.88
30302;BME280;17111;52.130;5.028;2023-05-03T09:58:46;103053.28;;;19.83;44.97
30302;BME280;17111;52.130;5.028;2023-05-03T10:01:13;103057.47;;;19.87;45.16
30302;BME280;17111;52.130;5.028;2023-05-03T10:03:46;103054.44;;;19.91;44.89
30302;BME280;17111;52.130;5.028;2023-05-03T10:08:52;103047.63;;;19.99;44.86
30302;BME280;17111;52.130;5.028;2023-05-03T10:11:24;103047.28;;;20.03;44.89
30302;BME280;17111;52.130;5.028;2023-05-03T10:13:53;103039.94;;;20.05;44.74
30302;BME280;17111;52.130;5.028;2023-05-03T10:16:27;103054.91;;;20.09;44.81
30302;BME280;17111;52.130;5.028;2023-05-03T10:19:09;103051.13;;;20.12;45.21
30302;BME280;17111;52.130;5.028;2023-05-03T10:21:48;103042.84;;;20.15;44.65
30302;BME280;17111;52.130;5.028;2023-05-03T10:24:16;103045.28;;;20.18;44.68
30302;BME280;17111;52.130;5.028;2023-05-03T10:26:44;103044.19;;;20.20;45.01
30302;BME280;17111;52.130;5.028;2023-05-03T10:32:31;103042.00;;;20.26;45.17
30302;BME280;17111;52.130;5.028;2023-05-03T10:37:33;103034.47;;;20.31;44.59
30302;BME280;17111;52.130;5.028;2023-05-03T10:40:06;103032.50;;;20.33;44.92
30302;BME280;17111;52.130;5.028;2023-05-03T10:42:33;103029.72;;;20.34;45.04
30302;BME280;17111;52.130;5.028;2023-05-03T10:45:00;103028.59;;;20.37;45.03
30302;BME280;17111;52.130;5.028;2023-05-03T10:47:27;103025.81;;;20.38;44.86
30302;BME280;17111;52.130;5.028;2023-05-03T10:55:21;103032.56;;;20.44;44.79
30302;BME280;17111;52.130;5.028;2023-05-03T10:57:53;103025.13;;;20.48;44.91
30302;BME280;17111;52.130;5.028;2023-05-03T11:00:46;103015.19;;;20.48;45.00
30302;BME280;17111;52.130;5.028;2023-05-03T11:06:04;103012.03;;;20.54;44.65
30302;BME280;17111;52.130;5.028;2023-05-03T11:08:31;102995.78;;;20.56;44.54
30302;BME280;17111;52.130;5.028;2023-05-03T11:11:03;102996.50;;;20.58;44.60
30302;BME280;17111;52.130;5.028;2023-05-03T11:13:35;102989.19;;;20.60;44.49
30302;BME280;17111;52.130;5.028;2023-05-03T11:16:03;102994.44;;;20.61;44.90
30302;BME280;17111;52.130;5.028;2023-05-03T11:18:31;102987.09;;;20.63;44.81
30302;BME280;17111;52.130;5.028;2023-05-03T11:20:58;102995.06;;;20.65;44.30
30302;BME280;17111;52.130;5.028;2023-05-03T11:23:26;102990.44;;;20.67;44.37
30302;BME280;17111;52.130;5.028;2023-05-03T11:25:54;102991.28;;;20.67;44.01
30302;BME280;17111;52.130;5.028;2023-05-03T11:28:24;102989.31;;;20.69;43.95
30302;BME280;17111;52.130;5.028;2023-05-03T11:30:51;102980.13;;;20.72;44.56
30302;BME280;17111;52.130;5.028;2023-05-03T11:33:17;102978.16;;;20.74;43.83
30302;BME280;17111;52.130;5.028;2023-05-03T11:35:44;102980.75;;;20.76;44.07
30302;BME280;17111;52.130;5.028;2023-05-03T11:38:11;102982.47;;;20.77;43.80
30302;BME280;17111;52.130;5.028;2023-05-03T11:40:37;102976.94;;;20.78;43.79
30302;BME280;17111;52.130;5.028;2023-05-03T11:43:05;102976.00;;;20.79;44.37
30302;BME280;17111;52.130;5.028;2023-05-03T11:45:43;102974.03;;;20.81;44.23
30302;BME280;17111;52.130;5.028;2023-05-03T11:48:12;102965.84;;;20.83;43.92
30302;BME280;17111;52.130;5.028;2023-05-03T11:50:46;102974.66;;;20.85;44.16
30302;BME280;17111;52.130;5.028;2023-05-03T11:53:14;102954.78;;;20.86;43.74
30302;BME280;17111;52.130;5.028;2023-05-03T11:55:46;102966.31;;;20.88;44.05
30302;BME280;17111;52.130;5.028;2023-05-03T11:58:17;102956.25;;;20.90;44.05
30302;BME280;17111;52.130;5.028;2023-05-03T12:00:50;102962.41;;;20.92;43.54
30302;BME280;17111;52.130;5.028;2023-05-03T12:05:45;102954.94;;;20.95;43.87
30302;BME280;17111;52.130;5.028;2023-05-03T12:08:14;102949.41;;;20.97;43.71
30302;BME280;17111;52.130;5.028;2023-05-03T12:10:49;102935.94;;;20.97;43.29
30302;BME280;17111;52.130;5.028;2023-05-03T12:13:31;102927.75;;;20.99;43.83
30302;BME280;17111;52.130;5.028;2023-05-03T12:16:04;102936.56;;;21.01;43.37
30302;BME280;17111;52.130;5.028;2023-05-03T12:18:52;102926.63;;;21.01;43.89
30302;BME280;17111;52.130;5.028;2023-05-03T12:21:23;102928.22;;;21.04;43.82
30302;BME280;17111;52.130;5.028;2023-05-03T12:23:53;102921.84;;;21.05;43.93
30302;BME280;17111;52.130;5.028;2023-05-03T12:26:22;102919.00;;;21.06;43.67
30302;BME280;17111;52.130;5.028;2023-05-03T12:28:51;102914.50;;;21.07;43.43
30302;BME280;17111;52.130;5.028;2023-05-03T12:31:22;102906.28;;;21.08;43.32
30302;BME280;17111;52.130;5.028;2023-05-03T12:33:48;102907.00;;;21.10;43.55
30302;BME280;17111;52.130;5.028;2023-05-03T12:36:35;102904.31;;;21.10;43.28
30302;BME280;17111;52.130;5.028;2023-05-03T12:39:03;102908.75;;;21.11;43.38
30302;BME280;17111;52.130;5.028;2023-05-03T12:41:35;102896.97;;;21.12;43.28
30302;BME280;17111;52.130;5.028;2023-05-03T12:44:04;102892.44;;;21.13;43.32
30302;BME280;17111;52.130;5.028;2023-05-03T12:46:36;102888.72;;;21.14;43.22
30302;BME280;17111;52.130;5.028;2023-05-03T12:49:04;102902.13;;;21.15;43.24
30302;BME280;17111;52.130;5.028;2023-05-03T12:51:33;102884.09;;;21.16;42.96
30302;BME280;17111;52.130;5.028;2023-05-03T12:54:00;102883.25;;;21.15;43.00
30302;BME280;17111;52.130;5.028;2023-05-03T12:56:28;102884.09;;;21.16;43.13
30302;BME280;17111;52.130;5.028;2023-05-03T12:58:58;102878.69;;;21.16;43.04
30302;BME280;17111;52.130;5.028;2023-05-03T13:01:45;102864.34;;;21.15;42.88
30302;BME280;17111;52.130;5.028;2023-05-03T13:04:32;102860.66;;;21.16;42.83
30302;BME280;17111;52.130;5.028;2023-05-03T13:07:19;102866.91;;;21.17;42.78
30302;BME280;17111;52.130;5.028;2023-05-03T13:09:55;102866.06;;;21.16;42.68
30302;BME280;17111;52.130;5.028;2023-05-03T13:12:25;102859.81;;;21.16;42.50
30302;BME280;17111;52.130;5.028;2023-05-03T13:14:53;102863.38;;;21.16;42.71
30302;BME280;17111;52.130;5.028;2023-05-03T13:17:20;102857.97;;;21.16;42.40
30302;BME280;17111;52.130;5.028;2023-05-03T13:19:49;102857.97;;;21.16;42.46
30302;BME280;17111;52.130;5.028;2023-05-03T13:22:16;102849.03;;;21.16;42.39
30302;BME280;17111;52.130;5.028;2023-05-03T13:24:44;102840.94;;;21.16;42.60